createdAt,value
2018-03-07T00:00:17.694Z,80.81
2018-03-07T00:02:45.233Z,81.01
2018-03-07T00:05:12.795Z,82.40
2018-03-07T00:07:40.325Z,82.94
2018-03-07T00:10:07.911Z,81.48
2018-03-07T00:12:35.428Z,80.80
2018-03-07T00:15:02.968Z,80.44
2018-03-07T00:17:30.547Z,80.36
2018-03-07T00:19:58.081Z,81.40
2018-03-07T00:22:25.680Z,83.76
2018-03-07T00:24:53.235Z,84.08
2018-03-07T00:27:20.804Z,82.94
2018-03-07T00:29:48.349Z,82.10
2018-03-07T00:32:15.913Z,81.41
2018-03-07T00:34:43.435Z,80.94
2018-03-07T00:37:10.994Z,80.82
2018-03-07T00:39:38.550Z,80.83
2018-03-07T00:42:06.141Z,81.32
2018-03-07T00:44:33.679Z,81.55
2018-03-07T00:47:01.223Z,81.18
2018-03-07T00:49:29.576Z,80.99
2018-03-07T00:51:57.100Z,81.67
2018-03-07T00:54:24.670Z,83.25
2018-03-07T00:56:52.214Z,84.12
2018-03-07T00:59:19.817Z,83.74
2018-03-07T01:01:47.360Z,83.73
2018-03-07T01:04:14.932Z,83.11
2018-03-07T01:06:42.471Z,83.62
2018-03-07T01:09:10.069Z,83.01
2018-03-07T01:11:37.609Z,82.96
2018-03-07T01:14:05.135Z,82.57
2018-03-07T01:16:32.712Z,82.17
2018-03-07T01:19:00.232Z,82.67
2018-03-07T01:21:27.788Z,82.86
2018-03-07T01:23:55.315Z,82.70
2018-03-07T01:26:22.881Z,82.77
2018-03-07T01:28:50.407Z,83.73
2018-03-07T01:31:17.997Z,83.55
2018-03-07T01:33:45.519Z,83.49
2018-03-07T01:36:13.038Z,82.98
2018-03-07T01:38:40.629Z,83.33
2018-03-07T01:41:08.156Z,83.06
2018-03-07T01:43:35.728Z,82.95
2018-03-07T01:46:03.239Z,83.34
2018-03-07T01:48:30.814Z,83.05
2018-03-07T01:50:58.339Z,83.36
2018-03-07T01:53:25.908Z,83.56
2018-03-07T01:55:53.460Z,84.28
2018-03-07T01:58:21.047Z,83.73
2018-03-07T02:00:48.742Z,85.06
2018-03-07T02:03:16.271Z,84.36
2018-03-07T02:05:43.830Z,84.68
2018-03-07T02:08:11.402Z,85.76
2018-03-07T02:10:38.932Z,85.24
2018-03-07T02:13:06.510Z,84.64
2018-03-07T02:15:34.088Z,85.28
2018-03-07T02:18:01.616Z,85.47
2018-03-07T02:20:30.010Z,85.22
2018-03-07T02:22:57.671Z,85.73
2018-03-07T02:25:25.248Z,85.46
2018-03-07T02:27:52.776Z,85.08
2018-03-07T02:30:20.356Z,85.66
2018-03-07T02:32:47.917Z,85.80
2018-03-07T02:35:15.497Z,85.47
2018-03-07T02:37:43.085Z,85.33
2018-03-07T02:40:10.661Z,84.63
2018-03-07T02:42:38.187Z,85.55
2018-03-07T02:45:05.761Z,84.68
2018-03-07T02:47:33.316Z,84.44
2018-03-07T02:50:00.886Z,84.53
2018-03-07T02:52:28.423Z,84.67
2018-03-07T02:54:55.998Z,85.96
2018-03-07T02:57:23.543Z,84.63
2018-03-07T02:59:51.127Z,84.80
2018-03-07T03:02:18.650Z,84.76
2018-03-07T03:04:46.209Z,84.33
2018-03-07T03:07:13.736Z,84.22
2018-03-07T03:09:41.306Z,85.24
2018-03-07T03:12:08.820Z,84.68
2018-03-07T03:14:36.387Z,84.66
2018-03-07T03:17:03.926Z,84.22
2018-03-07T03:19:31.497Z,83.93
2018-03-07T03:21:59.999Z,84.09
2018-03-07T03:24:27.529Z,84.22
2018-03-07T03:26:55.070Z,85.29
2018-03-07T03:29:22.605Z,84.83
2018-03-07T03:31:50.185Z,85.10
2018-03-07T03:34:17.716Z,84.63
2018-03-07T03:36:45.279Z,84.48
2018-03-07T03:39:12.810Z,84.78
2018-03-07T03:41:40.365Z,84.40
2018-03-07T03:44:07.899Z,83.89
2018-03-07T03:46:35.446Z,84.77
2018-03-07T03:49:02.974Z,84.30
2018-03-07T03:51:30.528Z,83.92
2018-03-07T03:53:58.102Z,85.09
2018-03-07T03:56:25.679Z,85.77
2018-03-07T03:58:53.230Z,85.86
2018-03-07T04:01:20.787Z,85.66
2018-03-07T04:03:48.315Z,85.93
2018-03-07T04:06:15.868Z,85.98
2018-03-07T04:08:43.381Z,85.62
2018-03-07T04:13:43.874Z,84.81
2018-03-07T04:16:11.469Z,85.10
2018-03-07T04:18:39.002Z,84.78
2018-03-07T04:21:06.558Z,85.73
2018-03-07T04:23:34.080Z,85.52
2018-03-07T04:26:01.658Z,85.37
2018-03-07T04:28:29.182Z,85.13
2018-03-07T04:30:56.735Z,85.87
2018-03-07T04:33:24.258Z,85.21
2018-03-07T04:35:51.791Z,84.33
2018-03-07T04:38:19.343Z,85.45
2018-03-07T04:40:46.902Z,85.87
2018-03-07T04:43:14.471Z,85.83
2018-03-07T04:45:42.024Z,86.17
2018-03-07T04:48:09.581Z,85.67
2018-03-07T04:50:37.106Z,85.87
2018-03-07T04:53:04.675Z,85.60
2018-03-07T04:55:32.206Z,84.93
2018-03-07T04:57:59.763Z,84.49
2018-03-07T05:00:27.287Z,84.61
2018-03-07T05:02:54.864Z,84.41
2018-03-07T05:05:22.394Z,84.59
2018-03-07T05:07:49.964Z,84.80
2018-03-07T05:10:17.498Z,84.67
2018-03-07T05:12:45.057Z,84.58
2018-03-07T05:15:12.603Z,84.63
2018-03-07T05:17:40.164Z,84.45
2018-03-07T05:20:07.726Z,84.68
2018-03-07T05:22:35.284Z,84.71
2018-03-07T05:25:02.815Z,84.74
2018-03-07T05:27:31.076Z,84.84
2018-03-07T05:29:58.689Z,85.07
2018-03-07T05:32:26.224Z,86.08
2018-03-07T05:34:53.769Z,86.39
2018-03-07T05:37:21.325Z,85.85
2018-03-07T05:39:48.887Z,85.25
2018-03-07T05:42:16.477Z,85.92
2018-03-07T05:44:44.000Z,85.19
2018-03-07T05:47:11.586Z,85.95
2018-03-07T05:49:39.143Z,85.90
2018-03-07T05:52:06.784Z,85.40
2018-03-07T05:54:34.742Z,85.34
2018-03-07T05:57:02.292Z,85.48
2018-03-07T05:59:29.865Z,85.35
2018-03-07T06:01:57.395Z,85.08
2018-03-07T06:04:24.971Z,85.76
2018-03-07T06:06:52.739Z,85.56
2018-03-07T06:09:20.319Z,85.60
2018-03-07T06:11:47.840Z,85.38
2018-03-07T06:14:15.428Z,85.06
2018-03-07T06:16:42.967Z,84.83
2018-03-07T06:19:10.493Z,84.91
2018-03-07T06:21:38.063Z,85.88
2018-03-07T06:24:05.591Z,85.62
2018-03-07T06:26:33.171Z,85.22
2018-03-07T06:29:01.293Z,85.71
2018-03-07T06:31:28.839Z,85.43
2018-03-07T06:33:56.374Z,85.67
2018-03-07T06:36:24.530Z,86.02
2018-03-07T06:38:52.239Z,86.10
2018-03-07T06:41:19.806Z,85.67
2018-03-07T06:43:47.385Z,85.86
2018-03-07T06:46:14.915Z,85.51
2018-03-07T06:48:42.488Z,85.55
2018-03-07T06:51:10.017Z,85.41
2018-03-07T06:53:37.591Z,85.73
2018-03-07T06:56:05.144Z,86.00
2018-03-07T06:58:32.696Z,86.30
2018-03-07T07:01:00.276Z,86.18
2018-03-07T07:03:27.819Z,86.33
2018-03-07T07:05:55.403Z,86.27
2018-03-07T07:08:22.937Z,86.03
2018-03-07T07:10:50.507Z,86.40
2018-03-07T07:13:18.027Z,87.03
2018-03-07T07:15:45.604Z,86.53
2018-03-07T07:18:13.115Z,86.35
2018-03-07T07:20:40.649Z,87.62
2018-03-07T07:23:08.250Z,86.64
2018-03-07T07:25:35.776Z,86.75
2018-03-07T07:28:03.343Z,86.55
2018-03-07T07:30:31.552Z,86.34
2018-03-07T07:32:59.105Z,86.93
2018-03-07T07:35:26.749Z,86.97
2018-03-07T07:37:54.299Z,87.04
2018-03-07T07:40:21.934Z,88.06
2018-03-07T07:42:49.505Z,87.60
2018-03-07T07:45:17.088Z,88.58
2018-03-07T07:47:44.609Z,88.86
2018-03-07T07:50:12.165Z,89.53
2018-03-07T07:52:39.693Z,90.27
2018-03-07T07:55:07.247Z,90.15
2018-03-07T07:57:34.784Z,89.84
2018-03-07T08:00:02.392Z,89.37
2018-03-07T08:02:30.142Z,89.72
2018-03-07T08:04:57.887Z,89.81
2018-03-07T08:07:25.519Z,89.59
2018-03-07T08:09:53.452Z,89.89
2018-03-07T08:12:22.547Z,89.68
2018-03-07T08:14:50.610Z,89.54
2018-03-07T08:17:18.405Z,89.12
2018-03-07T08:19:46.574Z,89.09
2018-03-07T08:22:14.327Z,88.80
2018-03-07T08:24:42.306Z,88.44
2018-03-07T08:27:10.155Z,88.02
2018-03-07T08:29:37.817Z,88.14
2018-03-07T08:32:05.404Z,87.75
2018-03-07T08:34:33.065Z,87.51
2018-03-07T08:37:00.592Z,87.09
2018-03-07T08:39:28.151Z,87.18
2018-03-07T08:41:55.688Z,87.09
2018-03-07T08:44:23.242Z,87.02
2018-03-07T08:46:50.811Z,86.90
2018-03-07T08:49:18.448Z,87.10
2018-03-07T08:51:46.000Z,86.83
2018-03-07T08:54:13.550Z,86.94
2018-03-07T08:56:41.128Z,86.70
2018-03-07T08:59:08.681Z,86.55
2018-03-07T09:01:38.355Z,86.21
2018-03-07T09:04:09.849Z,86.54
2018-03-07T09:06:37.471Z,85.95
2018-03-07T09:09:05.016Z,85.79
2018-03-07T09:11:33.215Z,85.73
2018-03-07T09:14:00.823Z,86.09
2018-03-07T09:16:28.379Z,85.69
2018-03-07T09:18:55.899Z,85.99
2018-03-07T09:21:23.456Z,85.09
2018-03-07T09:23:50.982Z,84.83
2018-03-07T09:26:18.541Z,84.54
2018-03-07T09:28:47.033Z,84.06
2018-03-07T09:31:14.665Z,84.40
2018-03-07T09:33:42.191Z,83.89
2018-03-07T09:36:09.815Z,83.16
2018-03-07T09:38:37.322Z,83.42
2018-03-07T09:41:04.924Z,82.86
2018-03-07T09:43:33.320Z,82.66
2018-03-07T09:46:00.838Z,82.75
2018-03-07T09:48:28.408Z,81.40
2018-03-07T09:50:55.925Z,81.90
2018-03-07T09:53:23.495Z,82.43
2018-03-07T09:55:51.010Z,81.07
2018-03-07T09:58:18.567Z,81.05
2018-03-07T10:00:46.115Z,80.26
2018-03-07T10:03:13.666Z,80.23
2018-03-07T10:05:41.195Z,80.68
2018-03-07T10:08:08.731Z,80.16
2018-03-07T10:10:36.252Z,79.87
2018-03-07T10:13:03.827Z,79.11
2018-03-07T10:15:31.356Z,79.81
2018-03-07T10:17:59.511Z,79.57
2018-03-07T10:20:27.035Z,79.65
2018-03-07T10:22:54.822Z,79.58
2018-03-07T10:25:23.143Z,79.76
2018-03-07T10:27:50.704Z,79.01
2018-03-07T10:30:18.358Z,79.06
2018-03-07T10:32:45.993Z,79.07
2018-03-07T10:35:13.545Z,80.08
2018-03-07T10:37:41.116Z,80.95
2018-03-07T10:40:08.643Z,81.06
2018-03-07T10:42:36.204Z,81.33
2018-03-07T10:45:03.759Z,80.50
2018-03-07T10:47:31.329Z,79.86
2018-03-07T10:49:58.857Z,80.53
2018-03-07T10:52:26.411Z,80.49
2018-03-07T10:54:53.928Z,80.76
2018-03-07T10:57:21.487Z,80.64
2018-03-07T10:59:51.124Z,80.77
2018-03-07T11:02:21.120Z,80.91
2018-03-07T11:04:51.366Z,80.76
2018-03-07T11:07:19.748Z,81.12
2018-03-07T11:09:54.503Z,81.25
2018-03-07T11:12:26.485Z,82.20
2018-03-07T11:14:58.341Z,82.94
2018-03-07T11:17:36.840Z,83.23
2018-03-07T11:20:10.022Z,84.13
2018-03-07T11:22:43.100Z,84.29
2018-03-07T11:25:15.743Z,85.02
2018-03-07T11:27:48.146Z,86.41
2018-03-07T11:30:20.095Z,86.27
2018-03-07T11:32:52.854Z,86.23
2018-03-07T11:35:24.302Z,87.13
2018-03-07T11:37:59.704Z,86.38
2018-03-07T11:40:31.359Z,86.81
2018-03-07T11:43:03.553Z,87.04
2018-03-07T11:45:35.316Z,87.60
2018-03-07T11:48:08.055Z,87.59
2018-03-07T11:50:39.063Z,87.22
2018-03-07T11:53:09.653Z,87.11
2018-03-07T11:55:39.655Z,86.95
2018-03-07T11:58:12.883Z,88.70
2018-03-07T12:00:43.243Z,89.11
2018-03-07T12:03:15.526Z,87.19
2018-03-07T12:05:49.645Z,87.97
2018-03-07T12:08:20.450Z,87.04
2018-03-07T12:10:52.128Z,86.86
2018-03-07T12:13:25.671Z,85.62
2018-03-07T12:15:57.755Z,85.10
2018-03-07T12:18:29.034Z,85.36
2018-03-07T12:21:02.044Z,84.85
2018-03-07T12:23:33.393Z,85.23
2018-03-07T12:26:07.238Z,85.42
2018-03-07T12:28:39.384Z,84.65
2018-03-07T12:31:10.859Z,87.96
2018-03-07T12:33:42.494Z,84.45
2018-03-07T12:36:13.329Z,82.81
2018-03-07T12:38:44.905Z,82.32
2018-03-07T12:41:16.775Z,83.00
2018-03-07T12:43:51.469Z,82.78
2018-03-07T12:46:22.703Z,82.73
2018-03-07T12:48:53.582Z,82.33
2018-03-07T12:51:25.287Z,83.07
2018-03-07T12:53:57.040Z,84.45
2018-03-07T12:56:29.228Z,83.66
2018-03-07T12:59:02.396Z,84.29
2018-03-07T13:01:33.502Z,84.43
2018-03-07T13:04:06.035Z,83.95
2018-03-07T13:06:39.089Z,83.57
2018-03-07T13:09:12.609Z,84.85
2018-03-07T13:11:43.923Z,84.36
2018-03-07T13:14:15.346Z,84.00
2018-03-07T13:16:47.721Z,85.06
2018-03-07T13:19:21.207Z,84.33
2018-03-07T13:21:54.557Z,83.30
2018-03-07T13:24:26.020Z,84.71
2018-03-07T13:26:58.201Z,83.52
2018-03-07T13:29:30.576Z,84.33
2018-03-07T13:32:00.304Z,81.41
2018-03-07T13:34:32.336Z,81.19
2018-03-07T13:37:06.148Z,81.63
2018-03-07T13:39:37.925Z,84.81
2018-03-07T13:42:07.468Z,84.38
2018-03-07T13:44:37.396Z,84.88
2018-03-07T13:47:07.958Z,86.34
2018-03-07T13:49:38.217Z,86.67
2018-03-07T13:52:08.513Z,85.93
2018-03-07T13:54:39.206Z,86.97
2018-03-07T13:57:08.774Z,85.68
2018-03-07T13:59:39.384Z,84.60
2018-03-07T14:02:09.080Z,83.10
2018-03-07T14:04:38.042Z,83.11
2018-03-07T14:07:08.895Z,82.99
2018-03-07T14:09:38.948Z,82.98
2018-03-07T14:12:10.780Z,83.65
2018-03-07T14:14:41.134Z,83.91
2018-03-07T14:17:11.296Z,84.15
2018-03-07T14:19:42.884Z,84.08
2018-03-07T14:22:13.568Z,83.98
2018-03-07T14:24:44.662Z,82.74
2018-03-07T14:27:14.999Z,83.33
2018-03-07T14:29:47.478Z,84.01
2018-03-07T14:32:17.922Z,83.48
2018-03-07T14:34:48.782Z,84.52
2018-03-07T14:37:20.478Z,82.93
2018-03-07T14:39:51.837Z,83.75
2018-03-07T14:42:19.622Z,81.37
2018-03-07T14:44:50.999Z,82.13
2018-03-07T14:47:22.461Z,81.70
2018-03-07T14:49:53.406Z,79.92
2018-03-07T14:52:23.150Z,80.98
2018-03-07T14:54:52.848Z,79.45
2018-03-07T14:57:23.008Z,79.94
2018-03-07T14:59:53.462Z,79.92
2018-03-07T15:02:25.121Z,79.66
2018-03-07T15:04:55.117Z,80.74
2018-03-07T15:07:25.207Z,82.20
2018-03-07T15:09:55.202Z,80.89
2018-03-07T15:12:25.610Z,81.82
2018-03-07T15:14:56.298Z,80.59
2018-03-07T15:17:26.317Z,81.16
2018-03-07T15:19:57.200Z,80.90
2018-03-07T15:22:28.062Z,81.88
2018-03-07T15:24:55.892Z,82.46
2018-03-07T15:27:23.577Z,81.57
2018-03-07T15:29:53.622Z,82.22
2018-03-07T15:32:22.625Z,82.16
2018-03-07T15:34:50.169Z,82.02
2018-03-07T15:37:19.929Z,82.55
2018-03-07T15:39:51.058Z,82.08
2018-03-07T15:42:19.288Z,82.96
2018-03-07T15:44:46.804Z,82.81
2018-03-07T15:47:14.502Z,80.89
2018-03-07T15:49:42.042Z,79.07
2018-03-07T15:52:12.764Z,78.40
2018-03-07T15:54:41.974Z,78.59
2018-03-07T15:57:09.590Z,78.25
2018-03-07T15:59:39.602Z,78.66
2018-03-07T16:02:07.778Z,79.20
2018-03-07T16:04:35.578Z,79.62
2018-03-07T16:07:03.293Z,79.46
2018-03-07T16:09:30.821Z,79.12
2018-03-07T16:11:58.404Z,78.80
2018-03-07T16:14:25.920Z,79.55
2018-03-07T16:16:53.659Z,79.23
2018-03-07T16:19:21.226Z,80.60
2018-03-07T16:21:48.763Z,80.16
2018-03-07T16:24:16.286Z,79.95
2018-03-07T16:26:43.846Z,79.31
2018-03-07T16:29:11.360Z,79.95
2018-03-07T16:31:38.895Z,80.24
2018-03-07T16:34:06.856Z,80.53
2018-03-07T16:36:34.594Z,80.55
2018-03-07T16:39:02.178Z,80.15
2018-03-07T16:41:30.204Z,80.40
2018-03-07T16:43:58.183Z,80.25
2018-03-07T16:46:25.710Z,79.64
2018-03-07T16:48:53.667Z,78.97
2018-03-07T16:51:21.186Z,77.97
2018-03-07T16:53:48.740Z,78.00
2018-03-07T16:56:16.329Z,78.32
2018-03-07T16:58:43.894Z,78.77
2018-03-07T17:01:11.403Z,78.22
2018-03-07T17:03:39.013Z,78.19
2018-03-07T17:06:06.650Z,78.14
2018-03-07T17:08:34.444Z,78.31
2018-03-07T17:11:02.103Z,78.07
2018-03-07T17:13:29.662Z,77.90
2018-03-07T17:15:57.329Z,78.37
2018-03-07T17:18:24.900Z,78.85
2018-03-07T17:20:52.564Z,79.10
2018-03-07T17:23:20.111Z,79.69
2018-03-07T17:25:47.620Z,79.28
2018-03-07T17:28:15.173Z,79.35
2018-03-07T17:30:42.681Z,79.40
2018-03-07T17:33:10.219Z,80.22
2018-03-07T17:35:37.749Z,80.37
2018-03-07T17:38:05.305Z,80.06
2018-03-07T17:40:33.682Z,80.01
2018-03-07T17:43:01.235Z,80.30
2018-03-07T17:45:28.768Z,80.19
2018-03-07T17:47:56.336Z,80.89
2018-03-07T17:50:23.993Z,81.26
2018-03-07T17:52:51.516Z,80.36
2018-03-07T17:55:19.064Z,80.83
2018-03-07T17:57:46.581Z,79.83
2018-03-07T18:00:14.156Z,80.39
2018-03-07T18:02:41.691Z,80.59
2018-03-07T18:05:09.258Z,80.52
2018-03-07T18:07:36.776Z,80.92
2018-03-07T18:10:04.336Z,80.99
2018-03-07T18:12:31.867Z,80.87
2018-03-07T18:14:59.418Z,81.54
2018-03-07T18:17:27.142Z,83.04
2018-03-07T18:19:54.716Z,82.23
2018-03-07T18:22:22.240Z,83.28
2018-03-07T18:24:50.563Z,83.49
2018-03-07T18:27:18.087Z,83.09
2018-03-07T18:29:45.647Z,83.22
2018-03-07T18:32:13.162Z,83.27
2018-03-07T18:34:40.733Z,83.49
2018-03-07T18:37:08.248Z,83.22
2018-03-07T18:39:35.779Z,83.22
2018-03-07T18:42:04.236Z,82.70
2018-03-07T18:44:31.744Z,83.15
2018-03-07T18:46:59.286Z,83.23
2018-03-07T18:49:26.805Z,83.77
2018-03-07T18:51:54.344Z,83.81
2018-03-07T18:54:21.866Z,83.99
2018-03-07T18:56:49.412Z,84.63
2018-03-07T18:59:16.984Z,84.81
2018-03-07T19:01:44.537Z,85.06
2018-03-07T19:04:12.060Z,85.10
2018-03-07T19:06:40.175Z,85.06
2018-03-07T19:09:08.295Z,85.19
2018-03-07T19:11:35.912Z,85.44
2018-03-07T19:14:04.345Z,86.01
2018-03-07T19:16:31.872Z,85.42
2018-03-07T19:18:59.414Z,85.37
2018-03-07T19:21:26.928Z,85.21
2018-03-07T19:23:54.483Z,85.72
2018-03-07T19:26:22.585Z,85.75
2018-03-07T19:28:50.396Z,85.92
2018-03-07T19:31:17.956Z,86.01
2018-03-07T19:33:45.802Z,86.17
2018-03-07T19:36:13.357Z,85.95
2018-03-07T19:38:40.895Z,85.86
2018-03-07T19:41:08.416Z,85.77
2018-03-07T19:43:35.998Z,85.93
2018-03-07T19:46:03.508Z,86.04
2018-03-07T19:48:31.057Z,85.78
2018-03-07T19:50:58.600Z,85.99
2018-03-07T19:53:26.117Z,86.60
2018-03-07T19:55:53.695Z,86.38
2018-03-07T19:58:21.232Z,86.28
2018-03-07T20:00:48.779Z,86.41
2018-03-07T20:03:16.300Z,86.73
2018-03-07T20:05:43.843Z,86.99
2018-03-07T20:08:11.718Z,86.75
2018-03-07T20:10:40.872Z,86.36
2018-03-07T20:13:11.026Z,86.50
2018-03-07T20:15:38.791Z,86.57
2018-03-07T20:18:06.648Z,86.36
2018-03-07T20:20:35.126Z,86.47
2018-03-07T20:23:02.687Z,86.33
2018-03-07T20:25:30.239Z,86.71
2018-03-07T20:27:57.757Z,86.44
2018-03-07T20:30:25.303Z,86.31
2018-03-07T20:32:52.819Z,86.42
2018-03-07T20:35:20.372Z,86.08
2018-03-07T20:37:47.895Z,85.75
2018-03-07T20:40:15.441Z,85.72
2018-03-07T20:42:42.971Z,85.36
2018-03-07T20:45:10.511Z,85.58
2018-03-07T20:47:38.071Z,85.70
2018-03-07T20:50:07.348Z,85.71
2018-03-07T20:52:35.382Z,84.69
2018-03-07T20:55:02.938Z,85.14
2018-03-07T20:57:30.476Z,84.91
2018-03-07T20:59:58.035Z,85.14
2018-03-07T21:02:25.573Z,85.19
2018-03-07T21:04:53.151Z,85.52
2018-03-07T21:07:20.679Z,85.03
2018-03-07T21:09:48.224Z,85.23
2018-03-07T21:12:15.831Z,85.05
2018-03-07T21:14:43.379Z,85.58
2018-03-07T21:17:10.932Z,85.28
2018-03-07T21:19:38.488Z,85.35
2018-03-07T21:22:06.001Z,85.42
2018-03-07T21:24:33.565Z,85.42
2018-03-07T21:27:01.116Z,85.53
2018-03-07T21:29:28.652Z,85.34
2018-03-07T21:31:56.196Z,85.16
2018-03-07T21:34:23.811Z,84.88
2018-03-07T21:36:51.384Z,84.76
2018-03-07T21:39:18.994Z,84.88
2018-03-07T21:41:51.202Z,84.92
2018-03-07T21:44:19.177Z,84.70
2018-03-07T21:46:46.752Z,84.84
2018-03-07T21:49:16.223Z,84.70
2018-03-07T21:51:46.639Z,84.97
2018-03-07T21:54:15.674Z,84.92
2018-03-07T21:56:44.821Z,84.67
2018-03-07T21:59:13.228Z,84.84
2018-03-07T22:01:41.526Z,84.63
2018-03-07T22:04:10.828Z,84.64
2018-03-07T22:06:39.539Z,84.91
2018-03-07T22:09:10.029Z,84.30
2018-03-07T22:11:38.637Z,84.32
2018-03-07T22:14:07.903Z,85.16
2018-03-07T22:16:36.209Z,84.77
2018-03-07T22:19:04.832Z,84.48
2018-03-07T22:21:33.657Z,85.08
2018-03-07T22:24:02.523Z,85.10
2018-03-07T22:26:32.123Z,85.17
2018-03-07T22:29:01.861Z,85.09
2018-03-07T22:31:30.575Z,84.91
2018-03-07T22:33:59.189Z,85.26
2018-03-07T22:36:27.936Z,85.22
2018-03-07T22:38:57.736Z,85.29
2018-03-07T22:41:26.355Z,85.88
2018-03-07T22:43:56.788Z,85.99
2018-03-07T22:46:25.797Z,85.30
2018-03-07T22:48:56.706Z,84.81
2018-03-07T22:51:26.895Z,85.30
2018-03-07T22:53:54.678Z,85.19
2018-03-07T22:56:22.252Z,85.45
2018-03-07T22:58:49.798Z,85.08
2018-03-07T23:01:19.248Z,85.80
2018-03-07T23:03:46.810Z,85.90
2018-03-07T23:06:14.364Z,85.88
2018-03-07T23:08:41.939Z,85.46
2018-03-07T23:11:09.459Z,85.62
2018-03-07T23:13:37.032Z,85.74
2018-03-07T23:16:04.567Z,85.86
2018-03-07T23:18:32.111Z,85.84
2018-03-07T23:20:59.656Z,85.86
2018-03-07T23:23:27.203Z,85.88
2018-03-07T23:25:54.728Z,85.62
2018-03-07T23:28:22.273Z,86.01
2018-03-07T23:30:49.795Z,85.83
2018-03-07T23:33:17.372Z,86.40
2018-03-07T23:35:44.886Z,86.47
2018-03-07T23:38:12.479Z,86.41
2018-03-07T23:40:40.028Z,86.76
2018-03-07T23:43:07.563Z,86.75
2018-03-07T23:45:36.072Z,86.23
2018-03-07T23:48:03.594Z,86.28
2018-03-07T23:50:31.143Z,85.95
2018-03-07T23:52:58.678Z,86.44
2018-03-07T23:55:26.231Z,86.12
2018-03-07T23:57:53.892Z,86.37
